< < Back
Terminal Aerodrome Forecast


Current Version              Previous Versions:   1  2  3  4  5  6  7  8  9  

Terminal Aerodrome Forecast

524
FTUS42 KGSP 200528
TAFGSP
TAF
KGSP 200528Z 2006/2106 04003KT P6SM OVC090
     FM201000 04006KT P6SM -RA OVC040
     FM201500 04006KT P6SM -RA OVC028
     FM210300 02003KT 4SM BR SCT024=



Latest METAR

064
SAUS70 KWBC 200600 RRL
MTRGSP
METAR KGSP 200553Z AUTO 00000KT 10SM BKN110 08/02 A3015 RMK AO2 SLP209
T00780017 10094 20072 51009


USA.gov is the U.S. government's official web portal to all federal, state and local government web resources and services.